createdAt,value
2023-01-21T00:01:15.152Z,23.80
2023-01-21T00:03:43.370Z,23.82
2023-01-21T00:06:14.975Z,23.89
2023-01-21T00:08:43.288Z,23.92
2023-01-21T00:11:14.451Z,23.92
2023-01-21T00:13:43.080Z,23.99
2023-01-21T00:16:12.451Z,24.01
2023-01-21T00:18:40.451Z,23.89
2023-01-21T00:21:08.473Z,24.02
2023-01-21T00:23:37.857Z,24.01
2023-01-21T00:26:08.193Z,24.05
2023-01-21T00:28:37.486Z,24.09
2023-01-21T00:31:07.932Z,24.12
2023-01-21T00:33:37.753Z,24.09
2023-01-21T00:36:07.941Z,24.04
2023-01-21T00:38:37.825Z,24.05
2023-01-21T00:41:07.799Z,24.10
2023-01-21T00:43:36.319Z,24.08
2023-01-21T00:46:04.759Z,24.12
2023-01-21T00:48:33.309Z,24.15
2023-01-21T00:51:01.747Z,24.15
2023-01-21T00:53:31.204Z,24.15
2023-01-21T00:56:05.548Z,24.16
2023-01-21T00:58:34.042Z,24.13
2023-01-21T01:01:03.736Z,24.07
2023-01-21T01:03:31.856Z,24.04
2023-01-21T01:06:03.497Z,24.01
2023-01-21T01:08:31.467Z,24.00
2023-01-21T01:10:59.788Z,24.02
2023-01-21T01:13:29.923Z,24.02
2023-01-21T01:15:58.748Z,23.98
2023-01-21T01:18:28.805Z,24.01
2023-01-21T01:20:57.167Z,23.95
2023-01-21T01:23:25.637Z,23.93
2023-01-21T01:25:57.817Z,24.16
2023-01-21T01:28:26.246Z,24.16
2023-01-21T01:30:56.204Z,24.16
2023-01-21T01:33:24.612Z,24.14
2023-01-21T01:35:53.305Z,24.11
2023-01-21T01:38:23.039Z,24.11
2023-01-21T01:40:53.192Z,24.12
2023-01-21T01:43:23.370Z,24.15
2023-01-21T01:45:52.053Z,24.11
2023-01-21T01:48:27.375Z,24.18
2023-01-21T01:50:57.970Z,24.23
2023-01-21T01:53:27.705Z,24.25
2023-01-21T01:55:56.435Z,24.25
2023-01-21T01:58:24.633Z,24.30
2023-01-21T02:00:52.627Z,24.34
2023-01-21T02:03:39.514Z,24.34
2023-01-21T02:06:07.964Z,24.30
2023-01-21T02:08:36.513Z,24.31
2023-01-21T02:11:11.649Z,24.36
2023-01-21T02:13:40.169Z,24.27
2023-01-21T02:16:29.286Z,24.25
2023-01-21T02:19:12.684Z,24.23
2023-01-21T02:21:59.469Z,24.18
2023-01-21T02:25:16.506Z,24.12
2023-01-21T02:27:54.043Z,24.16
2023-01-21T02:30:42.355Z,24.16
2023-01-21T02:33:37.057Z,24.16
2023-01-21T02:36:15.968Z,24.13
2023-01-21T02:38:53.619Z,24.16
2023-01-21T02:41:29.688Z,24.19
2023-01-21T02:44:07.947Z,24.19
2023-01-21T02:46:44.073Z,24.22
2023-01-21T02:49:22.696Z,24.27
2023-01-21T02:51:50.828Z,24.15
2023-01-21T02:54:50.850Z,24.34
2023-01-21T02:57:31.621Z,24.27
2023-01-21T03:00:01.681Z,24.21
2023-01-21T03:02:47.630Z,24.03
2023-01-21T03:05:26.365Z,24.17
2023-01-21T03:08:01.744Z,24.19
2023-01-21T03:10:36.089Z,24.21
2023-01-21T03:13:08.264Z,24.19
2023-01-21T03:15:57.430Z,24.21
2023-01-21T03:18:30.615Z,24.24
2023-01-21T03:21:04.666Z,24.26
2023-01-21T03:23:37.889Z,24.29
2023-01-21T03:26:08.569Z,24.29
2023-01-21T03:28:43.053Z,24.26
2023-01-21T03:31:19.709Z,24.25
2023-01-21T03:33:52.439Z,24.27
2023-01-21T03:36:28.085Z,24.30
2023-01-21T03:38:57.556Z,24.27
2023-01-21T03:41:32.108Z,24.29
2023-01-21T03:44:00.480Z,24.28
2023-01-21T03:46:37.758Z,24.26
2023-01-21T03:49:11.305Z,24.23
2023-01-21T03:51:46.351Z,24.14
2023-01-21T03:54:14.461Z,24.09
2023-01-21T03:56:42.433Z,24.03
2023-01-21T03:59:10.412Z,24.03
2023-01-21T04:01:39.547Z,24.04
2023-01-21T04:04:07.787Z,24.07
2023-01-21T04:06:36.757Z,24.05
2023-01-21T04:09:06.753Z,24.02
2023-01-21T04:11:34.853Z,23.98
2023-01-21T04:14:03.088Z,24.03
2023-01-21T04:16:31.226Z,24.05
2023-01-21T04:18:59.160Z,24.04
2023-01-21T04:21:27.281Z,24.07
2023-01-21T04:23:55.257Z,24.03
2023-01-21T04:26:24.637Z,24.04
2023-01-21T04:28:52.586Z,24.06
2023-01-21T04:31:20.668Z,23.98
2023-01-21T04:33:48.603Z,23.99
2023-01-21T04:36:16.635Z,23.97
2023-01-21T04:38:44.516Z,23.98
2023-01-21T04:41:12.471Z,24.02
2023-01-21T04:43:41.869Z,24.05
2023-01-21T04:46:09.945Z,24.05
2023-01-21T04:48:37.952Z,24.04
2023-01-21T04:51:07.990Z,24.02
2023-01-21T04:53:36.164Z,23.98
2023-01-21T04:56:04.549Z,23.92
2023-01-21T04:58:32.625Z,23.86
2023-01-21T05:01:02.025Z,23.82
2023-01-21T05:03:30.079Z,23.76
2023-01-21T05:05:58.110Z,23.71
2023-01-21T05:08:26.077Z,23.69
2023-01-21T05:10:53.995Z,23.68
2023-01-21T05:13:21.918Z,23.71
2023-01-21T05:15:50.087Z,23.71
2023-01-21T05:18:19.474Z,23.67
2023-01-21T05:20:47.479Z,23.64
2023-01-21T05:23:15.332Z,23.63
2023-01-21T05:25:43.296Z,23.68
2023-01-21T05:28:11.229Z,23.71
2023-01-21T05:30:41.034Z,23.72
2023-01-21T05:33:09.762Z,23.69
2023-01-21T05:35:39.086Z,23.69
2023-01-21T05:38:07.071Z,23.70
2023-01-21T05:40:35.145Z,23.71
2023-01-21T05:43:03.264Z,23.74
2023-01-21T05:45:31.186Z,23.76
2023-01-21T05:47:59.147Z,23.78
2023-01-21T05:50:27.224Z,23.74
2023-01-21T05:52:56.518Z,23.77
2023-01-21T05:55:24.479Z,23.76
2023-01-21T05:57:52.426Z,23.78
2023-01-21T06:00:21.075Z,23.82
2023-01-21T06:02:49.303Z,23.80
2023-01-21T06:05:17.397Z,23.71
2023-01-21T06:07:45.457Z,23.70
2023-01-21T06:10:14.861Z,23.64
2023-01-21T06:12:42.943Z,23.60
2023-01-21T06:15:11.660Z,23.57
2023-01-21T06:17:40.873Z,23.53
2023-01-21T06:20:10.464Z,23.54
2023-01-21T06:22:38.495Z,23.58
2023-01-21T06:25:07.178Z,23.61
2023-01-21T06:27:38.384Z,23.65
2023-01-21T06:30:07.905Z,23.68
2023-01-21T06:32:37.089Z,23.69
2023-01-21T06:35:05.809Z,23.70
2023-01-21T06:37:34.141Z,23.70
2023-01-21T06:40:02.116Z,23.73
2023-01-21T06:42:30.129Z,23.74
2023-01-21T06:44:59.565Z,23.77
2023-01-21T06:47:27.506Z,23.78
2023-01-21T06:49:55.437Z,23.73
2023-01-21T06:52:23.711Z,23.71
2023-01-21T06:54:51.646Z,23.72
2023-01-21T06:57:19.667Z,23.75
2023-01-21T06:59:47.631Z,23.75
2023-01-21T07:02:16.976Z,23.80
2023-01-21T07:04:45.587Z,23.74
2023-01-21T07:07:13.585Z,23.70
2023-01-21T07:09:41.501Z,23.64
2023-01-21T07:12:09.417Z,23.63
2023-01-21T07:14:37.355Z,23.59
2023-01-21T07:17:05.687Z,23.62
2023-01-21T07:19:35.189Z,23.62
2023-01-21T07:22:03.246Z,23.63
2023-01-21T07:24:31.201Z,23.62
2023-01-21T07:26:59.277Z,23.57
2023-01-21T07:29:28.012Z,23.56
2023-01-21T07:31:56.093Z,23.55
2023-01-21T07:34:24.094Z,23.54
2023-01-21T07:36:53.394Z,23.52
2023-01-21T07:39:21.358Z,23.49
2023-01-21T07:41:49.469Z,23.47
2023-01-21T07:44:18.936Z,23.48
2023-01-21T07:46:47.026Z,23.47
2023-01-21T07:49:17.430Z,23.46
2023-01-21T07:51:45.627Z,23.44
2023-01-21T07:54:15.736Z,23.46
2023-01-21T07:56:43.839Z,23.49
2023-01-21T07:59:13.355Z,23.53
2023-01-21T08:01:41.639Z,23.52
2023-01-21T08:04:09.885Z,23.55
2023-01-21T08:06:41.387Z,23.57
2023-01-21T08:09:09.629Z,23.62
2023-01-21T08:11:39.030Z,23.59
2023-01-21T08:14:07.078Z,23.57
2023-01-21T08:16:35.291Z,23.54
2023-01-21T08:19:03.427Z,23.53
2023-01-21T08:21:31.425Z,23.53
2023-01-21T08:23:59.505Z,23.53
2023-01-21T08:26:27.564Z,23.51
2023-01-21T08:28:57.174Z,23.52
2023-01-21T08:31:25.144Z,23.51
2023-01-21T08:33:53.202Z,23.48
2023-01-21T08:36:21.203Z,23.47
2023-01-21T08:38:49.275Z,23.52
2023-01-21T08:41:17.889Z,23.52
2023-01-21T08:43:47.051Z,23.52
2023-01-21T08:46:16.353Z,23.50
2023-01-21T08:48:44.277Z,23.50
2023-01-21T08:51:12.337Z,23.55
2023-01-21T08:53:40.388Z,23.55
2023-01-21T08:56:08.627Z,23.57
2023-01-21T08:58:37.051Z,23.59
2023-01-21T09:01:08.922Z,23.58
2023-01-21T09:03:38.588Z,23.54
2023-01-21T09:06:08.328Z,23.58
2023-01-21T09:08:37.344Z,23.59
2023-01-21T09:11:07.192Z,23.52
2023-01-21T09:13:37.439Z,23.60
2023-01-21T09:16:10.148Z,23.56
2023-01-21T09:18:39.574Z,23.50
2023-01-21T09:21:08.785Z,23.48
2023-01-21T09:23:38.118Z,23.44
2023-01-21T09:26:08.487Z,23.42
2023-01-21T09:28:37.807Z,23.28
2023-01-21T09:31:08.020Z,23.30
2023-01-21T09:33:41.074Z,23.47
2023-01-21T09:36:13.482Z,23.51
2023-01-21T09:38:43.917Z,23.55
2023-01-21T09:41:23.533Z,23.61
2023-01-21T09:43:58.894Z,23.65
2023-01-21T09:46:33.797Z,23.64
2023-01-21T09:49:06.739Z,23.61
2023-01-21T09:51:52.252Z,23.62
2023-01-21T09:54:26.629Z,23.66
2023-01-21T09:57:30.146Z,23.74
2023-01-21T10:00:14.389Z,23.79
2023-01-21T10:02:50.775Z,23.79
2023-01-21T10:05:40.359Z,23.78
2023-01-21T10:08:19.226Z,23.75
2023-01-21T10:10:52.623Z,23.75
2023-01-21T10:13:43.773Z,23.79
2023-01-21T10:16:18.944Z,23.75
2023-01-21T10:18:49.715Z,23.74
2023-01-21T10:21:30.731Z,23.80
2023-01-21T10:24:05.370Z,23.72
2023-01-21T10:26:35.787Z,23.72
2023-01-21T10:29:04.107Z,23.76
2023-01-21T10:31:40.180Z,23.72
2023-01-21T10:34:13.671Z,23.67
2023-01-21T10:36:56.585Z,23.57
2023-01-21T10:39:35.795Z,23.57
2023-01-21T10:42:32.365Z,23.53
2023-01-21T10:45:08.356Z,23.53
2023-01-21T10:47:43.406Z,23.46
2023-01-21T10:50:29.752Z,23.48
2023-01-21T10:53:07.901Z,23.51
2023-01-21T10:55:48.135Z,23.53
2023-01-21T10:58:27.266Z,23.52
2023-01-21T11:00:58.905Z,23.54
2023-01-21T11:03:35.401Z,23.65
2023-01-21T11:06:06.963Z,23.72
2023-01-21T11:08:36.643Z,23.73
2023-01-21T11:11:07.445Z,23.77
2023-01-21T11:13:35.469Z,23.72
2023-01-21T11:16:04.674Z,23.69
2023-01-21T11:18:36.833Z,23.68
2023-01-21T11:21:17.633Z,23.55
2023-01-21T11:23:54.936Z,23.77
2023-01-21T11:26:26.280Z,23.66
2023-01-21T11:29:14.276Z,23.90
2023-01-21T11:31:43.251Z,23.92
2023-01-21T11:34:15.345Z,23.98
2023-01-21T11:36:56.552Z,23.97
2023-01-21T11:39:26.885Z,23.98
2023-01-21T11:41:55.625Z,23.97
2023-01-21T11:44:24.959Z,23.99
2023-01-21T11:46:53.277Z,23.96
2023-01-21T11:49:25.021Z,23.92
2023-01-21T11:52:13.762Z,24.03
2023-01-21T11:54:43.417Z,23.99
2023-01-21T11:57:23.726Z,23.88
2023-01-21T11:59:53.327Z,24.01
2023-01-21T12:02:24.363Z,24.08
2023-01-21T12:04:55.070Z,24.12
2023-01-21T12:07:26.729Z,24.12
2023-01-21T12:10:07.152Z,24.08
2023-01-21T12:12:53.688Z,24.06
2023-01-21T12:15:38.494Z,24.04
2023-01-21T12:18:21.102Z,24.03
2023-01-21T12:20:59.511Z,23.98
2023-01-21T12:23:55.691Z,23.94
2023-01-21T12:26:41.330Z,23.99
2023-01-21T12:29:26.142Z,24.01
2023-01-21T12:32:00.151Z,24.01
2023-01-21T12:34:34.223Z,23.98
2023-01-21T12:37:06.061Z,23.94
2023-01-21T12:39:37.534Z,23.94
2023-01-21T12:42:14.946Z,23.81
2023-01-21T12:44:49.336Z,23.90
2023-01-21T12:47:28.042Z,23.90
2023-01-21T12:50:07.994Z,23.92
2023-01-21T12:52:43.035Z,23.92
2023-01-21T12:55:21.834Z,23.93
2023-01-21T12:57:56.971Z,23.91
2023-01-21T13:00:27.652Z,23.84
2023-01-21T13:03:11.208Z,23.89
2023-01-21T13:05:47.497Z,23.91
2023-01-21T13:08:39.706Z,23.94
2023-01-21T13:11:17.109Z,23.90
2023-01-21T13:13:55.447Z,23.86
2023-01-21T13:16:26.094Z,23.79
2023-01-21T13:18:55.204Z,23.79
2023-01-21T13:21:37.066Z,23.87
2023-01-21T13:24:16.940Z,23.92
2023-01-21T13:26:52.880Z,23.88
2023-01-21T13:29:32.068Z,23.88
2023-01-21T13:32:24.870Z,23.89
2023-01-21T13:35:06.811Z,23.91
2023-01-21T13:37:43.288Z,23.92
2023-01-21T13:40:25.839Z,23.88
2023-01-21T13:45:44.286Z,23.98
2023-01-21T13:48:27.139Z,24.00
2023-01-21T13:51:12.940Z,23.99
2023-01-21T13:53:59.660Z,24.02
2023-01-21T13:56:43.910Z,24.02
2023-01-21T13:59:17.223Z,24.07
2023-01-21T14:01:51.925Z,24.10
2023-01-21T14:04:26.846Z,24.11
2023-01-21T14:07:01.818Z,24.13
2023-01-21T14:09:38.376Z,24.14
2023-01-21T14:12:16.747Z,24.17
2023-01-21T14:15:16.780Z,24.16
2023-01-21T14:18:03.337Z,24.16
2023-01-21T14:20:45.501Z,24.15
2023-01-21T14:23:23.903Z,24.15
2023-01-21T14:26:05.073Z,24.15
2023-01-21T14:28:39.644Z,24.12
2023-01-21T14:31:13.633Z,24.15
2023-01-21T14:33:48.726Z,24.19
2023-01-21T14:36:20.914Z,24.18
2023-01-21T14:39:02.010Z,24.24
2023-01-21T14:41:54.983Z,24.27
2023-01-21T14:44:39.789Z,24.26
2023-01-21T14:47:15.925Z,24.28
2023-01-21T14:49:46.916Z,24.32
2023-01-21T14:52:17.064Z,24.33
2023-01-21T14:54:46.514Z,24.35
2023-01-21T14:57:27.545Z,24.37
2023-01-21T15:00:03.835Z,24.34
2023-01-21T15:02:34.319Z,24.36
2023-01-21T15:05:16.555Z,24.39
2023-01-21T15:07:46.753Z,24.41
2023-01-21T15:10:19.833Z,24.42
2023-01-21T15:12:52.914Z,24.43
2023-01-21T15:15:31.019Z,24.43
2023-01-21T15:18:18.231Z,24.38
2023-01-21T15:20:50.727Z,24.39
2023-01-21T15:23:21.465Z,24.37
2023-01-21T15:26:19.259Z,24.40
2023-01-21T15:28:49.401Z,24.42
2023-01-21T15:31:45.711Z,24.40
2023-01-21T15:34:16.096Z,24.19
2023-01-21T15:36:47.690Z,24.29
2023-01-21T15:39:18.322Z,24.36
2023-01-21T15:41:59.045Z,24.37
2023-01-21T15:44:45.274Z,24.36
2023-01-21T15:47:29.570Z,24.21
2023-01-21T15:50:04.891Z,24.02
2023-01-21T15:52:53.616Z,23.86
2023-01-21T15:55:33.274Z,23.73
2023-01-21T15:58:13.987Z,23.69
2023-01-21T16:00:52.747Z,23.79
2023-01-21T16:03:25.676Z,23.83
2023-01-21T16:06:02.024Z,23.91
2023-01-21T16:08:51.755Z,23.98
2023-01-21T16:11:41.485Z,24.06
2023-01-21T16:14:23.153Z,24.10
2023-01-21T16:17:00.828Z,24.15
2023-01-21T16:19:32.952Z,24.17
2023-01-21T16:22:05.054Z,24.19
2023-01-21T16:24:41.241Z,24.22
2023-01-21T16:27:19.573Z,24.27
2023-01-21T16:29:47.557Z,24.27
2023-01-21T16:32:20.318Z,24.17
2023-01-21T16:34:48.563Z,24.33
2023-01-21T16:37:18.533Z,24.36
2023-01-21T16:39:48.045Z,24.36
2023-01-21T16:42:30.503Z,24.37
2023-01-21T16:44:59.705Z,24.33
2023-01-21T16:47:32.419Z,24.33
2023-01-21T16:50:00.628Z,24.33
2023-01-21T16:52:29.949Z,24.27
2023-01-21T16:54:59.403Z,24.38
2023-01-21T16:57:31.712Z,24.37
2023-01-21T17:00:02.623Z,24.35
2023-01-21T17:02:32.899Z,24.33
2023-01-21T17:05:04.707Z,24.29
2023-01-21T17:07:36.102Z,24.25
2023-01-21T17:10:07.830Z,24.27
2023-01-21T17:12:36.577Z,24.24
2023-01-21T17:15:14.540Z,24.23
2023-01-21T17:17:42.682Z,24.22
2023-01-21T17:20:35.403Z,24.20
2023-01-21T17:23:04.824Z,24.07
2023-01-21T17:25:36.221Z,23.92
2023-01-21T17:28:17.776Z,23.81
2023-01-21T17:30:45.923Z,23.74
2023-01-21T17:33:30.601Z,23.78
2023-01-21T17:36:10.843Z,23.80
2023-01-21T17:38:43.718Z,23.88
2023-01-21T17:41:24.703Z,23.95
2023-01-21T17:43:55.631Z,23.99
2023-01-21T17:46:24.748Z,24.04
2023-01-21T17:48:55.776Z,24.10
2023-01-21T17:51:27.338Z,24.10
2023-01-21T17:53:58.900Z,24.15
2023-01-21T17:56:40.977Z,24.16
2023-01-21T17:59:38.107Z,24.10
2023-01-21T18:02:10.942Z,24.08
2023-01-21T18:04:39.455Z,24.07
2023-01-21T18:07:15.975Z,24.09
2023-01-21T18:09:44.309Z,24.05
2023-01-21T18:12:13.591Z,24.10
2023-01-21T18:14:42.350Z,24.13
2023-01-21T18:17:15.922Z,24.14
2023-01-21T18:19:43.966Z,24.17
2023-01-21T18:22:23.372Z,24.19
2023-01-21T18:24:51.541Z,24.13
2023-01-21T18:27:25.675Z,24.16
2023-01-21T18:29:54.550Z,24.18
2023-01-21T18:32:22.525Z,24.23
2023-01-21T18:34:50.539Z,24.28
2023-01-21T18:37:20.944Z,24.31
2023-01-21T18:39:48.967Z,24.33
2023-01-21T18:42:18.243Z,24.33
2023-01-21T18:44:47.678Z,24.35
2023-01-21T18:47:17.227Z,24.34
2023-01-21T18:49:45.408Z,24.39
2023-01-21T18:52:15.956Z,24.45
2023-01-21T18:54:43.963Z,24.47
2023-01-21T18:57:12.779Z,24.43
2023-01-21T18:59:40.805Z,24.42
2023-01-21T19:02:13.797Z,24.42
2023-01-21T19:04:41.846Z,24.39
2023-01-21T19:07:15.002Z,24.39
2023-01-21T19:09:46.118Z,24.39
2023-01-21T19:12:16.473Z,24.36
2023-01-21T19:14:44.488Z,24.42
2023-01-21T19:17:14.519Z,24.30
2023-01-21T19:19:42.521Z,24.44
2023-01-21T19:22:13.512Z,24.48
2023-01-21T19:24:41.630Z,24.48
2023-01-21T19:27:15.706Z,24.49
2023-01-21T19:29:43.817Z,24.49
2023-01-21T19:32:15.645Z,24.52
2023-01-21T19:34:43.978Z,24.47
2023-01-21T19:37:15.046Z,24.51
2023-01-21T19:39:43.310Z,24.50
2023-01-21T19:42:11.864Z,24.50
2023-01-21T19:44:40.400Z,24.50
2023-01-21T19:47:17.812Z,24.50
2023-01-21T19:49:45.917Z,24.48
2023-01-21T19:52:15.225Z,24.42
2023-01-21T19:54:43.251Z,24.40
2023-01-21T19:57:14.894Z,24.36
2023-01-21T19:59:43.554Z,24.31
2023-01-21T20:02:12.375Z,24.27
2023-01-21T20:04:41.722Z,24.25
2023-01-21T20:07:13.920Z,24.24
2023-01-21T20:09:42.120Z,24.24
2023-01-21T20:12:12.389Z,24.26
2023-01-21T20:14:40.444Z,24.28
2023-01-21T20:17:14.245Z,24.32
2023-01-21T20:19:43.741Z,24.34
2023-01-21T20:22:13.654Z,24.35
2023-01-21T20:24:41.701Z,24.36
2023-01-21T20:27:15.151Z,24.37
2023-01-21T20:29:55.549Z,24.35
2023-01-21T20:32:30.425Z,24.36
2023-01-21T20:34:59.792Z,24.38
2023-01-21T20:37:27.740Z,24.38
2023-01-21T20:39:55.770Z,24.36
2023-01-21T20:42:23.806Z,24.38
2023-01-21T20:44:51.914Z,24.38
2023-01-21T20:47:27.637Z,24.39
2023-01-21T20:50:19.925Z,24.41
2023-01-21T20:52:48.828Z,24.41
2023-01-21T20:55:20.718Z,24.29
2023-01-21T20:57:49.217Z,24.45
2023-01-21T21:00:19.658Z,24.45
2023-01-21T21:02:49.087Z,24.41
2023-01-21T21:05:19.726Z,24.33
2023-01-21T21:07:48.265Z,24.41
2023-01-21T21:10:21.223Z,24.43
2023-01-21T21:12:49.684Z,24.45
2023-01-21T21:15:19.497Z,24.46
2023-01-21T21:17:48.065Z,24.44
2023-01-21T21:20:20.119Z,24.47
2023-01-21T21:22:48.276Z,24.48
2023-01-21T21:25:17.752Z,24.50
2023-01-21T21:27:46.541Z,24.48
2023-01-21T21:30:16.421Z,24.47
2023-01-21T21:32:44.502Z,24.48
2023-01-21T21:35:32.151Z,24.47
2023-01-21T21:38:03.993Z,24.48
2023-01-21T21:40:32.347Z,24.48
2023-01-21T21:43:17.826Z,24.50
2023-01-21T21:46:00.026Z,24.50
2023-01-21T21:48:39.839Z,24.51
2023-01-21T21:51:10.759Z,24.54
2023-01-21T21:53:40.033Z,24.55
2023-01-21T21:56:10.958Z,24.58
2023-01-21T21:58:39.174Z,24.57
2023-01-21T22:01:12.043Z,24.56
2023-01-21T22:03:40.725Z,24.61
2023-01-21T22:06:10.892Z,24.66
2023-01-21T22:08:40.381Z,24.65
2023-01-21T22:11:10.794Z,24.67
2023-01-21T22:13:40.379Z,24.66
2023-01-21T22:16:11.918Z,24.67
2023-01-21T22:18:40.633Z,24.66
2023-01-21T22:21:12.782Z,24.66
2023-01-21T22:23:40.869Z,24.66
2023-01-21T22:26:12.372Z,24.64
2023-01-21T22:28:40.942Z,24.63
2023-01-21T22:31:11.091Z,24.64
2023-01-21T22:33:40.341Z,24.60
2023-01-21T22:36:12.342Z,24.61
2023-01-21T22:38:40.898Z,24.59
2023-01-21T22:41:10.583Z,24.60
2023-01-21T22:43:41.837Z,24.62
2023-01-21T22:46:12.033Z,24.63
2023-01-21T22:48:41.469Z,24.57
2023-01-21T22:51:13.029Z,24.64
2023-01-21T22:53:41.392Z,24.64
2023-01-21T22:56:09.633Z,24.60
2023-01-21T22:58:38.031Z,24.60
2023-01-21T23:01:06.974Z,24.59
2023-01-21T23:03:35.259Z,24.58
2023-01-21T23:06:04.921Z,24.55
2023-01-21T23:08:34.395Z,24.54
2023-01-21T23:11:04.185Z,24.53
2023-01-21T23:13:32.513Z,24.53
2023-01-21T23:16:00.817Z,24.56
2023-01-21T23:18:30.098Z,24.58
2023-01-21T23:20:58.101Z,24.61
2023-01-21T23:23:26.239Z,24.59
2023-01-21T23:25:55.586Z,24.55
2023-01-21T23:28:24.578Z,24.52
2023-01-21T23:30:52.680Z,24.54
2023-01-21T23:33:20.730Z,24.55
2023-01-21T23:35:55.518Z,24.56
2023-01-21T23:38:23.850Z,24.56
2023-01-21T23:40:51.809Z,24.56
2023-01-21T23:43:25.234Z,24.60
2023-01-21T23:45:53.346Z,24.58
2023-01-21T23:48:21.536Z,24.58
2023-01-21T23:50:49.809Z,24.60
2023-01-21T23:53:18.088Z,24.60
2023-01-21T23:55:46.145Z,24.58
2023-01-21T23:58:14.103Z,24.58
